Airfield :







YOU CAN JOIN US ON...

 
LOGIN :

Register | Disclaimer

   EN    FR    IT 

 









Legend :    VFR   Marginal VFR   IFR   Intensive IFR   Very Intensive IFR
Visi :
Ceiling :
>= 8 km
>= 3000ft
5 to 8 km
1000 to 3000 ft
1500m to 5 km
500 to 1000 ft
800 to 1500m
200 to 500 ft
< 800m
< 200 ft
Symbols :   Thunderstorms  Fog  Heavy snow  Heavy precipitations  Wind > 20 kt






- Airport Elevation : 16 ft
- IATA code : FDF


TFFF - Aime Cesaire

CURRENT METAR :
  • 212100Z AUTO 09011KT 9999 FEW029 27/21 Q1012 NOSIG

EXPIRED METARs :
  • 212030Z AUTO 10011KT 060V120 9999 FEW033 28/21 Q1012 NOSIG
  • 212000Z AUTO 09012KT 9999 FEW031 SCT039 28/21 Q1012 NOSIG
  • 211930Z AUTO 09011KT 9999 FEW036 28/21 Q1012 NOSIG
  • 211900Z AUTO 09011KT 050V120 9999 FEW034 28/21 Q1012 NOSIG
  • 211830Z AUTO 11011KT 9999 SCT035 SCT043 29/21 Q1012 NOSIG
  • 211800Z AUTO 10013KT 9999 FEW038 29/21 Q1013 NOSIG

TAF TAF TFFF
Valid from the 21 at 18:00 until the 22 at 18:00 UTC


211700Z 2118/2218 09010KT 9999 SCT025 BKN050
PROB40
TEMPO 2205/2213 4000 SHRA SCT015 BKN018TCU



MET'MAP, your aeronautical weather chart ! - Copyright ORBIFLY December 2007 - Disclaimer

ORBIFLY MET'MAP TEAM :

Programming & Development : Alexandra Zaïnal
Concept & original design : Baudouin d'Aumeries
Assistance for programming : Marc-Olivier Méhu
Technical & hardware support : Manuel Goepfert

Contact : metmap@orbifly.com




SOURCES & CREDITS :

   NOAA